Time;durP1;ratioP1;P1;durP2;ratioP2;P2;SDS_P1;SDS_P2;PMS_P1;PMS_P2;Temp;Humidity;BMP_temperature;BMP_pressure;BME280_temperature;BME280_humidity;BME280_pressure;Samples;Min_cycle;Max_cycle;Signal;HPM_P1;HPM_P2
2022/12/25 00:01:10;;;;;;;;;9.33;9.33;;;;;12.31;100.00;100678.44;6197946;23;45510;-86
2022/12/25 00:03:36;;;;;;;;;10.00;6.00;;;;;12.36;100.00;100683.78;6198936;22;45220;-87
2022/12/25 00:06:02;;;;;;;;;6.33;6.33;;;;;12.38;100.00;100682.94;6203299;22;45421;-87
2022/12/25 00:08:27;;;;;;;;;8.00;8.00;;;;;12.42;100.00;100683.81;6201222;22;46661;-87
2022/12/25 00:11:02;;;;;;;;;8.00;8.00;;;;;12.46;100.00;100684.72;6200429;22;45299;-87
2022/12/25 00:13:28;;;;;;;;;9.33;9.33;;;;;12.39;100.00;100662.47;6198798;22;45333;-87
2022/12/25 00:15:56;;;;;;;;;9.00;9.00;;;;;12.47;100.00;100673.19;6200484;22;45343;-86
2022/12/25 00:18:23;;;;;;;;;6.67;6.00;;;;;12.51;100.00;100677.66;6201806;22;45166;-87
2022/12/25 00:21:01;;;;;;;;;9.25;9.25;;;;;12.54;100.00;100683.91;6199039;22;45326;-87
2022/12/25 00:23:27;;;;;;;;;9.33;8.33;;;;;12.55;100.00;100684.78;6196339;23;45392;-86
2022/12/25 00:25:53;;;;;;;;;7.00;7.00;;;;;12.51;100.00;100662.53;6196819;23;45360;-87
2022/12/25 00:28:19;;;;;;;;;7.00;6.00;;;;;12.57;100.00;100678.56;6195669;23;47575;-89
2022/12/25 00:30:46;;;;;;;;;9.00;8.00;;;;;12.49;100.00;100658.09;6195992;23;45414;-88
2022/12/25 00:33:11;;;;;;;;;8.33;8.33;;;;;12.56;100.00;100671.47;6227107;22;45472;-86
2022/12/25 00:35:37;;;;;;;;;10.00;8.00;;;;;12.53;100.00;100666.09;6202617;22;44794;-88
2022/12/25 00:38:03;;;;;;;;;7.33;7.33;;;;;12.35;100.00;100644.69;6199988;22;45296;-87
2022/12/25 00:40:28;;;;;;;;;6.33;4.33;;;;;12.54;100.00;100674.97;6214264;22;44700;-88
2022/12/25 00:42:57;;;;;;;;;8.00;5.00;;;;;12.37;100.00;100642.91;6205377;22;45424;-89
2022/12/25 00:45:23;;;;;;;;;10.00;9.67;;;;;12.47;100.00;100666.06;6205692;22;44840;-87
2022/12/25 00:47:48;;;;;;;;;6.33;5.67;;;;;12.43;100.00;100658.94;6202160;22;46751;-87
2022/12/25 00:50:17;;;;;;;;;6.33;6.33;;;;;12.41;100.00;100645.59;6200838;22;45292;-87
2022/12/25 00:52:43;;;;;;;;;7.33;6.67;;;;;12.56;100.00;100665.22;6200099;22;44722;-86
2022/12/25 00:55:09;;;;;;;;;7.33;6.00;;;;;12.37;100.00;100622.44;6227749;22;45289;-87
2022/12/25 00:57:34;;;;;;;;;5.00;5.00;;;;;12.53;100.00;100643.88;6201606;22;45690;-87
2022/12/25 01:00:00;;;;;;;;;5.33;5.33;;;;;12.48;100.00;100632.28;6203152;22;45292;-87
2022/12/25 01:02:25;;;;;;;;;5.00;4.33;;;;;12.31;100.00;100597.53;6204271;22;45284;-86
2022/12/25 01:04:53;;;;;;;;;5.67;4.67;;;;;12.49;100.00;100623.41;6204180;22;44797;-87
2022/12/25 01:07:21;;;;;;;;;4.00;4.00;;;;;12.39;100.00;100610.00;6200389;22;45448;-87
2022/12/25 01:12:34;;;;;;;;;8.00;5.00;;;;;12.52;100.00;100637.66;6226888;22;45427;-86
2022/12/25 01:14:59;;;;;;;;;6.00;6.00;;;;;12.60;100.00;100653.66;6229774;22;45339;-88
2022/12/25 01:17:26;;;;;;;;;8.00;6.00;;;;;12.55;100.00;100643.00;6227638;22;46511;-87
2022/12/25 01:19:52;;;;;;;;;6.33;5.00;;;;;12.61;100.00;100642.13;6204514;22;45303;-89
2022/12/25 01:22:18;;;;;;;;;5.33;5.33;;;;;12.60;100.00;100630.56;6206021;22;45391;-87
2022/12/25 01:24:44;;;;;;;;;6.00;6.00;;;;;12.63;100.00;100636.81;6231780;22;45232;-88
2022/12/25 01:27:16;;;;;;;;;5.25;5.25;;;;;12.60;100.00;100630.56;6178676;22;46784;-88
2022/12/25 01:29:41;;;;;;;;;4.00;4.00;;;;;12.73;100.00;100660.84;6229963;22;45527;-89
2022/12/25 01:32:07;;;;;;;;;6.00;6.00;;;;;12.72;100.00;100660.84;6226361;22;45161;-86
2022/12/25 01:34:33;;;;;;;;;6.00;6.00;;;;;12.76;100.00;100667.97;6199507;22;44877;-87
2022/12/25 01:36:59;;;;;;;;;6.00;4.67;;;;;12.80;100.00;100669.75;6200202;22;46539;-88
2022/12/25 01:39:24;;;;;;;;;5.00;5.00;;;;;12.75;100.00;100655.53;6227958;22;45346;-87
2022/12/25 01:41:50;;;;;;;;;4.75;4.75;;;;;12.77;100.00;100659.97;6220227;22;45388;-87
2022/12/25 01:44:15;;;;;;;;;4.25;4.25;;;;;12.80;100.00;100669.75;6198004;23;44780;-88
2022/12/25 01:46:42;;;;;;;;;8.25;6.00;;;;;12.64;100.00;100634.13;6196631;23;46571;-88
2022/12/25 01:49:22;;;;;;;;;5.00;5.00;;;;;12.77;100.00;100656.44;6201472;22;44783;-90
2022/12/25 01:51:58;;;;;;;;;3.75;3.75;;;;;12.78;100.00;100663.53;6200685;22;45386;-87
2022/12/25 01:54:32;;;;;;;;;5.00;5.00;;;;;12.78;100.00;100655.53;6200667;22;45388;-86
2022/12/25 01:57:02;;;;;;;;;7.00;6.00;;;;;12.74;100.00;100653.72;6177102;23;46767;-88
2022/12/25 01:59:28;;;;;;;;;4.00;3.75;;;;;12.70;100.00;100652.81;6200375;22;45292;-88
2022/12/25 02:01:55;;;;;;;;;4.25;4.25;;;;;12.67;100.00;100643.94;6200535;22;45448;-87
2022/12/25 02:04:37;;;;;;;;;5.00;5.00;;;;;12.77;100.00;100649.31;6197512;23;45240;-87
2022/12/25 02:07:12;;;;;;;;;4.00;4.00;;;;;12.78;100.00;100650.19;6198294;23;45065;-87
2022/12/25 02:09:40;;;;;;;;;5.00;5.00;;;;;12.59;100.00;100595.88;6198332;23;44764;-87
2022/12/25 02:12:10;;;;;;;;;6.00;4.50;;;;;12.80;100.00;100648.41;6197259;22;45406;-89
2022/12/25 02:14:36;;;;;;;;;5.25;5.25;;;;;12.65;100.00;100630.59;6199160;22;45458;-87
2022/12/25 02:17:12;;;;;;;;;4.50;4.00;;;;;12.84;100.00;100641.31;6198157;23;46702;-87
2022/12/25 02:20:13;;;;;;;;;3.00;3.00;;;;;12.78;100.00;100618.16;6198003;23;44714;-88
2022/12/25 02:26:46;;;;;;;;;4.00;4.00;;;;;12.72;100.00;100619.03;6200761;23;45210;-86
2022/12/25 02:29:16;;;;;;;;;5.00;4.67;;;;;12.71;100.00;100632.38;6198574;23;46976;-86
2022/12/25 02:32:11;;;;;;;;;5.00;5.00;;;;;12.73;100.00;100641.28;6200519;23;44782;-87
2022/12/25 02:35:01;;;;;;;;;4.00;4.00;;;;;12.72;100.00;100620.81;6185142;23;45185;-86
2022/12/25 02:37:34;;;;;;;;;5.33;5.00;;;;;12.76;100.00;100625.28;6198740;23;45430;-86
2022/12/25 02:40:19;;;;;;;;;5.33;5.00;;;;;12.77;100.00;100622.63;6201405;22;45386;-86
2022/12/25 03:08:39;;;;;;;;;4.75;4.75;;;;;12.68;100.00;100589.66;6231417;22;45325;-86
2022/12/25 03:16:49;;;;;;;;;6.00;5.00;;;;;12.66;100.00;100591.44;6231096;22;45711;-86
2022/12/25 03:16:51;;;;;;;;;6.00;4.75;;;;;12.59;100.00;100579.88;6230948;22;45446;-86
2022/12/25 03:27:38;;;;;;;;;9.33;9.33;;;;;12.57;100.00;100577.19;6230303;22;45278;-86
2022/12/25 03:32:57;;;;;;;;;6.33;6.33;;;;;12.48;100.00;100561.19;6232134;22;45342;-87
2022/12/25 03:35:43;;;;;;;;;6.67;6.67;;;;;12.58;100.00;100573.66;6203156;22;46738;-85
2022/12/25 03:42:30;;;;;;;;;4.00;4.00;;;;;12.52;100.00;100554.97;6227851;22;44891;-86
2022/12/25 04:38:33;;;;;;;;;21.67;17.00;;;;;12.10;100.00;100486.34;6229475;22;45243;-87
2022/12/25 04:40:59;;;;;;;;;18.33;17.33;;;;;12.20;100.00;100513.06;6197496;23;44876;-87
2022/12/25 04:43:25;;;;;;;;;18.33;16.00;;;;;12.18;100.00;100504.16;6171798;23;48686;-87
2022/12/25 04:45:52;;;;;;;;;21.00;18.00;;;;;12.12;100.00;100487.25;6200840;23;45015;-87
2022/12/25 04:48:18;;;;;;;;;19.00;15.00;;;;;12.30;100.00;100526.41;6197931;23;44762;-87
2022/12/25 04:50:43;;;;;;;;;20.67;20.00;;;;;12.25;100.00;100520.19;6176214;22;45484;-87
2022/12/25 04:53:09;;;;;;;;;17.33;17.00;;;;;12.36;100.00;100521.09;6174682;23;48242;-87
2022/12/25 04:55:34;;;;;;;;;19.33;16.33;;;;;12.39;100.00;100519.34;6175143;22;45381;-87
2022/12/25 04:58:00;;;;;;;;;19.67;18.00;;;;;12.36;100.00;100510.44;6173749;23;45403;-87
2022/12/25 05:00:26;;;;;;;;;25.67;22.00;;;;;12.36;100.00;100510.44;6199850;22;45311;-87
2022/12/25 05:02:51;;;;;;;;;22.33;22.33;;;;;12.30;100.00;100494.41;6174431;22;47129;-87
2022/12/25 05:05:17;;;;;;;;;28.67;24.33;;;;;12.36;100.00;100492.69;6175082;22;45209;-86
2022/12/25 05:07:42;;;;;;;;;19.33;19.33;;;;;12.29;100.00;100460.66;6200592;22;45489;-86
2022/12/25 05:10:08;;;;;;;;;21.00;19.67;;;;;12.30;100.00;100417.09;6200961;22;45293;-87
2022/12/25 05:12:34;;;;;;;;;23.67;20.67;;;;;12.36;100.00;100425.09;6199888;22;45311;-87
2022/12/25 05:14:59;;;;;;;;;24.33;18.33;;;;;12.32;100.00;100426.91;6177159;23;45749;-87
2022/12/25 05:17:26;;;;;;;;;18.67;18.00;;;;;12.29;100.00;100426.00;6177077;23;45291;-86
2022/12/25 05:19:51;;;;;;;;;21.00;20.67;;;;;12.23;100.00;100428.66;6176524;23;45419;-87
2022/12/25 05:22:17;;;;;;;;;25.33;23.33;;;;;12.38;100.00;100463.31;6200777;22;47269;-86
2022/12/25 05:24:43;;;;;;;;;23.00;20.67;;;;;12.39;100.00;100465.13;6200320;23;45382;-86
2022/12/25 05:27:08;;;;;;;;;29.67;25.67;;;;;12.36;100.00;100468.69;6174843;23;45126;-87
2022/12/25 05:29:34;;;;;;;;;20.00;20.00;;;;;12.24;100.00;100454.41;6173808;22;45722;-87
2022/12/25 05:31:59;;;;;;;;;18.67;17.67;;;;;12.27;100.00;100465.97;6200335;23;46143;-87
2022/12/25 05:34:25;;;;;;;;;19.33;18.67;;;;;12.23;100.00;100428.66;6175692;23;44806;-87
2022/12/25 05:36:51;;;;;;;;;28.33;23.67;;;;;12.30;100.00;100441.09;6174753;23;44703;-87
2022/12/25 05:39:16;;;;;;;;;21.00;21.00;;;;;12.33;100.00;100475.78;6198943;23;45404;-87
2022/12/25 05:41:42;;;;;;;;;23.33;20.67;;;;;12.26;100.00;100460.63;6188955;23;46625;-87
2022/12/25 05:44:07;;;;;;;;;28.00;23.00;;;;;12.36;100.00;100470.44;6199262;23;45271;-86
2022/12/25 05:46:33;;;;;;;;;24.00;23.00;;;;;12.28;100.00;100451.78;6198395;22;45097;-86
2022/12/25 05:48:58;;;;;;;;;22.33;19.67;;;;;12.38;100.00;100471.31;6202889;23;45299;-87
2022/12/25 05:51:25;;;;;;;;;21.67;21.33;;;;;12.15;100.00;100423.28;6200082;23;46929;-87
2022/12/25 05:53:50;;;;;;;;;26.00;21.67;;;;;12.23;100.00;100432.19;6198826;22;45299;-85
2022/12/25 05:56:16;;;;;;;;;25.33;22.00;;;;;12.18;100.00;100426.84;6199051;23;45302;-86
2022/12/25 05:58:42;;;;;;;;;25.33;22.33;;;;;12.13;100.00;100420.59;6200688;22;45372;-86
2022/12/25 06:01:12;;;;;;;;;24.33;21.00;;;;;12.24;100.00;100441.06;6198719;23;48009;-87
2022/12/25 06:03:38;;;;;;;;;23.67;22.00;;;;;12.33;100.00;100457.09;6198728;23;45241;-86
2022/12/25 06:06:06;;;;;;;;;31.67;23.33;;;;;12.34;100.00;100462.44;6200181;23;44832;-87
2022/12/25 06:08:33;;;;;;;;;29.67;25.00;;;;;12.36;100.00;100467.75;6200068;23;45334;-87
2022/12/25 06:11:01;;;;;;;;;24.67;18.67;;;;;12.33;100.00;100446.44;6198582;23;45406;-87
2022/12/25 06:13:26;;;;;;;;;21.67;17.67;;;;;12.14;100.00;100411.75;6197011;23;45514;-86
2022/12/25 06:19:14;;;;;;;;;21.67;19.00;;;;;12.31;100.00;100426.88;6203224;23;45868;-87
2022/12/25 06:21:39;;;;;;;;;22.00;21.00;;;;;12.32;100.00;100441.97;6202042;22;47870;-87
2022/12/25 06:24:05;;;;;;;;;29.33;25.67;;;;;12.30;100.00;100436.66;6202770;23;44806;-86
2022/12/25 06:26:31;;;;;;;;;22.33;19.33;;;;;12.22;100.00;100427.75;6202830;22;45292;-86
2022/12/25 06:28:56;;;;;;;;;15.67;13.67;;;;;12.21;100.00;100418.84;6203722;23;45311;-87
2022/12/25 06:31:23;;;;;;;;;24.33;20.00;;;;;12.25;100.00;100416.22;6200926;23;45507;-86
2022/12/25 06:33:49;;;;;;;;;22.33;21.33;;;;;12.26;100.00;100404.63;6201804;23;44753;-86
2022/12/25 06:36:26;;;;;;;;;23.33;21.67;;;;;12.29;100.00;100410.00;6200206;23;45299;-87
2022/12/25 06:38:52;;;;;;;;;17.33;15.67;;;;;12.20;100.00;100394.88;6200893;23;45265;-87
2022/12/25 06:41:23;;;;;;;;;20.67;18.67;;;;;12.30;100.00;100401.09;6223993;22;45017;-86
2022/12/25 06:43:51;;;;;;;;;26.00;20.33;;;;;12.27;100.00;100374.44;6201381;23;44673;-86
2022/12/25 06:46:17;;;;;;;;;22.67;21.67;;;;;12.25;100.00;100381.53;6197829;23;45260;-87
2022/12/25 06:48:49;;;;;;;;;25.00;22.00;;;;;12.23;100.00;100388.66;6197370;23;45371;-86
2022/12/25 06:51:19;;;;;;;;;25.00;22.00;;;;;12.15;100.00;100380.63;6197862;23;47122;-87
2022/12/25 06:53:46;;;;;;;;;24.67;24.33;;;;;12.27;100.00;100411.75;6199327;23;45410;-86
2022/12/25 06:56:14;;;;;;;;;26.33;21.67;;;;;12.20;100.00;100406.41;6199159;22;45428;-87
2022/12/25 06:58:44;;;;;;;;;19.33;17.67;;;;;12.20;100.00;100414.41;6199331;23;44780;-87
2022/12/25 07:01:14;;;;;;;;;24.67;21.00;;;;;12.28;100.00;100424.19;6197726;23;47234;-86
2022/12/25 07:03:43;;;;;;;;;21.33;20.00;;;;;12.20;100.00;100406.41;6199217;22;44717;-86
2022/12/25 07:06:08;;;;;;;;;24.33;20.67;;;;;12.15;100.00;100413.50;6198319;23;45434;-86
2022/12/25 07:08:35;;;;;;;;;19.00;19.00;;;;;12.31;100.00;100429.53;6196994;23;45465;-86
2022/12/25 07:11:01;;;;;;;;;25.33;21.33;;;;;12.38;100.00;100434.00;6199733;23;46838;-86
2022/12/25 07:13:27;;;;;;;;;24.33;21.00;;;;;12.32;100.00;100404.66;6197842;23;44776;-86
2022/12/25 07:15:59;;;;;;;;;19.33;19.00;;;;;12.34;100.00;100400.19;6199657;23;44730;-86
2022/12/25 07:18:25;;;;;;;;;27.33;24.33;;;;;12.40;100.00;100397.53;6199766;23;45499;-86
2022/12/25 07:20:55;;;;;;;;;26.00;21.00;;;;;12.37;100.00;100376.22;6199122;23;47106;-87
2022/12/25 07:23:21;;;;;;;;;20.00;20.00;;;;;12.25;100.00;100346.88;6202861;22;45320;-87
2022/12/25 07:25:57;;;;;;;;;21.00;20.33;;;;;12.36;100.00;100361.09;6202204;22;44669;-86
2022/12/25 07:28:23;;;;;;;;;20.33;16.33;;;;;12.21;100.00;100346.00;6199493;23;45590;-87
2022/12/25 07:30:49;;;;;;;;;23.00;19.67;;;;;12.32;100.00;100361.97;6199391;23;46591;-86
2022/12/25 07:33:15;;;;;;;;;24.00;23.00;;;;;12.28;100.00;100344.19;6199992;23;44804;-86
2022/12/25 07:35:41;;;;;;;;;26.00;23.00;;;;;12.28;100.00;100349.53;6199735;23;45382;-87
2022/12/25 07:38:07;;;;;;;;;19.33;17.67;;;;;12.04;100.00;100298.00;6200404;23;45490;-87
2022/12/25 07:40:32;;;;;;;;;14.00;14.00;;;;;12.28;100.00;100320.22;6204715;22;45369;-87
2022/12/25 07:42:57;;;;;;;;;22.33;20.33;;;;;12.23;100.00;100308.66;6232257;22;44697;-87
2022/12/25 07:45:23;;;;;;;;;21.00;16.67;;;;;12.27;100.00;100321.13;6231382;22;45156;-86
2022/12/25 07:47:49;;;;;;;;;16.33;16.33;;;;;12.19;100.00;100321.97;6204776;22;45666;-86
2022/12/25 07:50:15;;;;;;;;;19.33;18.33;;;;;12.25;100.00;100338.88;6203487;22;47097;-86
2022/12/25 07:52:40;;;;;;;;;19.00;17.67;;;;;12.30;100.00;100358.44;6204195;22;44826;-86
2022/12/25 07:55:06;;;;;;;;;21.33;20.33;;;;;12.31;100.00;100376.22;6232072;22;45288;-87
2022/12/25 07:57:34;;;;;;;;;19.00;16.33;;;;;12.40;100.00;100378.88;6206122;22;44841;-87
2022/12/25 08:00:00;;;;;;;;;22.00;21.00;;;;;12.41;100.00;100372.66;6205340;22;47051;-87
2022/12/25 08:02:32;;;;;;;;;12.67;12.67;;;;;12.30;100.00;100347.75;6202404;22;45627;-87
2022/12/25 08:04:58;;;;;;;;;19.33;18.00;;;;;12.38;100.00;100373.56;6229843;22;45278;-87
2022/12/25 08:07:23;;;;;;;;;21.00;18.00;;;;;12.40;100.00;100378.88;6204233;22;44885;-86
2022/12/25 08:09:49;;;;;;;;;19.33;16.33;;;;;12.30;100.00;100369.09;6232209;22;46083;-86
2022/12/25 08:12:15;;;;;;;;;17.67;15.67;;;;;12.45;100.00;100389.56;6205092;22;45481;-86
2022/12/25 08:14:41;;;;;;;;;15.00;13.33;;;;;12.46;100.00;100384.22;6229981;22;45242;-87
2022/12/25 08:17:07;;;;;;;;;16.00;15.33;;;;;12.36;100.00;100358.44;6204287;22;44863;-86
2022/12/25 08:19:32;;;;;;;;;12.00;12.00;;;;;12.44;100.00;100372.66;6203791;22;46633;-87
2022/12/25 08:21:58;;;;;;;;;12.33;12.33;;;;;12.45;100.00;100363.78;6203774;22;45288;-87
2022/12/25 08:24:24;;;;;;;;;15.67;14.00;;;;;12.39;100.00;100342.44;6203194;22;45197;-86
2022/12/25 08:26:50;;;;;;;;;11.00;10.00;;;;;12.52;100.00;100367.31;6202026;22;45391;-87
2022/12/25 08:29:18;;;;;;;;;9.67;9.67;;;;;12.52;100.00;100354.00;6202896;22;45336;-87
2022/12/25 08:31:44;;;;;;;;;12.67;11.67;;;;;12.35;100.00;100327.34;6201655;22;45473;-87
2022/12/25 08:34:10;;;;;;;;;13.00;11.67;;;;;12.49;100.00;100354.88;6201519;22;45398;-88
2022/12/25 08:36:36;;;;;;;;;17.00;14.00;;;;;12.50;100.00;100361.09;6201125;22;45299;-88
2022/12/25 08:39:03;;;;;;;;;12.00;12.00;;;;;12.46;100.00;100349.53;6202935;22;46665;-87
2022/12/25 08:41:30;;;;;;;;;8.67;7.33;;;;;12.42;100.00;100342.44;6196096;23;44705;-87
2022/12/25 08:43:56;;;;;;;;;16.00;11.00;;;;;12.32;100.00;100320.22;6172160;23;45272;-87
2022/12/25 08:46:22;;;;;;;;;13.00;12.33;;;;;12.27;100.00;100321.13;6198168;23;45155;-87
2022/12/25 08:48:49;;;;;;;;;15.33;14.00;;;;;12.49;100.00;100346.88;6172183;23;45667;-87
2022/12/25 08:51:19;;;;;;;;;14.00;14.00;;;;;12.50;100.00;100346.00;6172947;23;45422;-86
2022/12/25 08:53:47;;;;;;;;;15.67;12.00;;;;;12.45;100.00;100353.09;6200534;23;45593;-87
2022/12/25 08:56:13;;;;;;;;;14.00;12.00;;;;;12.28;100.00;100329.13;6173569;23;45523;-87
2022/12/25 08:58:40;;;;;;;;;13.33;12.33;;;;;12.38;100.00;100337.97;6173577;23;47824;-86
2022/12/25 09:01:06;;;;;;;;;16.00;13.00;;;;;12.33;100.00;100350.44;6175568;23;45211;-86
2022/12/25 09:03:33;;;;;;;;;13.67;11.33;;;;;12.23;100.00;100335.34;6201892;22;44761;-86
2022/12/25 09:06:10;;;;;;;;;10.33;10.00;;;;;12.15;100.00;100320.19;6175092;23;45523;-86
2022/12/25 09:08:36;;;;;;;;;15.00;11.33;;;;;12.22;100.00;100339.78;6174069;23;47026;-87
2022/12/25 09:11:05;;;;;;;;;12.00;10.67;;;;;12.20;100.00;100347.78;6173312;22;44884;-87
2022/12/25 09:13:31;;;;;;;;;12.00;10.33;;;;;12.20;100.00;100347.78;6172515;23;45328;-86
2022/12/25 09:15:56;;;;;;;;;12.67;11.00;;;;;12.24;100.00;100358.41;6172779;23;45455;-86
2022/12/25 09:18:28;;;;;;;;;13.67;10.00;;;;;12.20;100.00;100336.22;6172932;23;46807;-87
2022/12/25 09:21:08;;;;;;;;;9.25;7.00;;;;;12.25;100.00;100344.22;6173339;23;45292;-87
2022/12/25 09:23:34;;;;;;;;;10.00;8.67;;;;;12.24;100.00;100366.41;6173368;23;45728;-87
2022/12/25 09:26:01;;;;;;;;;16.67;11.00;;;;;12.02;100.00;100321.09;6171915;23;45236;-87
2022/12/25 09:28:27;;;;;;;;;13.67;12.67;;;;;12.08;100.00;100329.09;6171135;23;46714;-87
2022/12/25 09:30:53;;;;;;;;;11.67;10.33;;;;;12.27;100.00;100355.78;6199270;23;45438;-87
2022/12/25 09:33:20;;;;;;;;;12.00;10.00;;;;;12.26;100.00;100346.91;6199457;23;44802;-87
2022/12/25 09:36:15;;;;;;;;;12.33;11.67;;;;;12.33;100.00;100351.31;6173266;23;44741;-87
2022/12/25 09:38:41;;;;;;;;;11.67;11.33;;;;;12.37;100.00;100354.88;6083218;23;46781;-87
2022/12/25 09:41:16;;;;;;;;;13.00;10.00;;;;;12.36;100.00;100350.44;6113169;23;45369;-87
2022/12/25 09:43:51;;;;;;;;;11.33;9.67;;;;;12.39;100.00;100347.78;6111659;23;44771;-87
2022/12/25 09:46:20;;;;;;;;;11.00;10.33;;;;;12.43;100.00;100338.88;6137919;23;45317;-87
2022/12/25 09:49:03;;;;;;;;;7.33;6.00;;;;;12.40;100.00;100350.44;6113500;23;45392;-87
2022/12/25 09:51:34;;;;;;;;;9.67;9.67;;;;;12.41;100.00;100359.34;6138526;23;45105;-88
2022/12/25 09:54:05;;;;;;;;;11.00;11.00;;;;;12.46;100.00;100351.31;6138347;23;45401;-87
2022/12/25 09:56:32;;;;;;;;;9.33;9.33;;;;;12.43;100.00;100349.56;6115094;23;45338;-87
2022/12/25 09:58:57;;;;;;;;;8.33;8.33;;;;;12.26;100.00;100305.97;6114207;23;47240;-87
2022/12/25 10:01:38;;;;;;;;;10.33;9.33;;;;;12.55;100.00;100341.53;6114574;23;45417;-87
2022/12/25 10:04:56;;;;;;;;;6.67;6.67;;;;;12.58;100.00;100333.56;6138869;23;45452;-87
2022/12/25 10:07:31;;;;;;;;;9.67;8.00;;;;;12.68;100.00;100328.19;6139780;23;44821;-87
2022/12/25 10:10:02;;;;;;;;;9.33;9.33;;;;;12.72;100.00;100335.31;6114394;23;45499;-87
2022/12/25 10:12:55;;;;;;;;;13.00;13.00;;;;;12.61;100.00;100309.53;6141498;23;45361;-87
2022/12/25 10:15:37;;;;;;;;;9.00;9.00;;;;;12.69;100.00;100304.19;6190160;22;44785;-87
2022/12/25 10:18:18;;;;;;;;;7.67;7.00;;;;;12.84;100.00;100329.94;6199446;23;45032;-86
2022/12/25 10:20:53;;;;;;;;;9.67;8.33;;;;;12.91;100.00;100334.41;6200132;22;47560;-86
2022/12/25 10:23:28;;;;;;;;;9.00;9.00;;;;;12.93;100.00;100327.28;6201411;23;45592;-86
2022/12/25 10:25:54;;;;;;;;;9.00;8.33;;;;;12.96;100.00;100332.59;6199671;23;45479;-86
2022/12/25 10:28:35;;;;;;;;;5.00;5.00;;;;;13.00;100.00;100326.34;6198424;23;45367;-87
2022/12/25 10:31:14;;;;;;;;;9.00;9.00;;;;;13.07;100.00;100321.91;6201299;23;46345;-87
2022/12/25 10:33:40;;;;;;;;;6.67;6.67;;;;;13.06;100.00;100322.78;6173948;23;45333;-87
2022/12/25 10:36:08;;;;;;;;;6.00;5.67;;;;;13.02;100.00;100319.22;6195874;23;45273;-87
2022/12/25 10:38:35;;;;;;;;;10.67;10.33;;;;;13.05;100.00;100317.44;6197901;23;45419;-87
2022/12/25 10:41:09;;;;;;;;;13.33;9.33;;;;;13.13;100.00;100315.66;6203072;22;45368;-86
2022/12/25 10:43:44;;;;;;;;;9.67;7.67;;;;;13.12;100.00;100308.53;6203784;22;45442;-88
2022/12/25 10:46:12;;;;;;;;;6.00;5.67;;;;;13.24;100.00;100313.81;6202889;22;45388;-87
2022/12/25 10:48:59;;;;;;;;;7.75;7.25;;;;;13.40;100.00;100322.69;6204367;22;45759;-87
2022/12/25 10:51:32;;;;;;;;;10.00;10.00;;;;;13.39;100.00;100303.13;6204346;22;46726;-87
2022/12/25 10:53:58;;;;;;;;;9.67;9.67;;;;;13.27;100.00;100276.44;6204670;22;45312;-87
2022/12/25 10:56:25;;;;;;;;;7.00;7.00;;;;;13.49;100.00;100313.75;6203516;22;45336;-87
2022/12/25 10:59:03;;;;;;;;;12.50;10.50;;;;;13.25;100.00;100282.66;6204975;22;45129;-87
2022/12/25 11:12:22;;;;;;;;;6.00;6.00;;;;;13.51;100.00;100302.19;6233228;22;44826;-85
2022/12/25 11:14:57;;;;;;;;;9.67;9.67;;;;;13.47;100.00;100291.50;6206484;22;46200;-86
2022/12/25 11:17:25;;;;;;;;;11.67;6.00;;;;;13.56;100.00;100294.13;6234488;22;44685;-86
2022/12/25 11:19:54;;;;;;;;;6.00;6.00;;;;;13.62;100.00;100295.91;6208021;22;45338;-86
2022/12/25 11:22:20;;;;;;;;;7.67;7.67;;;;;13.61;100.00;100303.00;6208107;22;45328;-86
2022/12/25 11:24:45;;;;;;;;;9.33;9.33;;;;;13.72;100.00;100327.88;6205674;22;46651;-85
2022/12/25 11:27:27;;;;;;;;;7.00;7.00;;;;;13.65;100.00;100336.81;6205221;22;44816;-85
2022/12/25 11:30:02;;;;;;;;;7.00;5.33;;;;;13.59;100.00;100344.88;6233074;22;45260;-86
2022/12/25 11:32:43;;;;;;;;;9.33;7.00;;;;;13.60;100.00;100357.34;6234274;22;44699;-86
2022/12/25 11:35:12;;;;;;;;;10.33;8.67;;;;;13.57;100.00;100344.00;6232206;22;45282;-86
2022/12/25 11:37:48;;;;;;;;;7.00;7.00;;;;;13.57;100.00;100344.91;6208349;22;44746;-86
2022/12/25 11:40:17;;;;;;;;;10.67;6.33;;;;;13.52;100.00;100335.13;6206641;22;44697;-86
2022/12/25 11:42:54;;;;;;;;;8.00;8.00;;;;;13.48;100.00;100325.34;6200284;23;44839;-86
2022/12/25 11:45:53;;;;;;;;;11.00;7.00;;;;;13.57;100.00;100338.66;6203225;22;45265;-86
2022/12/25 11:48:34;;;;;;;;;13.00;7.75;;;;;13.61;100.00;100332.38;6202253;23;45226;-86
2022/12/25 11:51:02;;;;;;;;;5.50;5.50;;;;;13.50;100.00;100304.84;6175265;23;44723;-86
2022/12/25 11:53:37;;;;;;;;;9.25;7.50;;;;;13.65;100.00;100328.81;6175658;23;45461;-86
2022/12/25 11:56:10;;;;;;;;;13.00;9.67;;;;;13.70;100.00;100332.34;6203500;23;45074;-86
2022/12/25 11:58:42;;;;;;;;;10.00;9.00;;;;;13.73;100.00;100318.09;6176647;22;45502;-86
2022/12/25 12:01:17;;;;;;;;;10.25;8.50;;;;;13.75;100.00;100305.59;6202377;22;44887;-86
2022/12/25 12:03:44;;;;;;;;;7.00;7.00;;;;;13.70;100.00;100305.63;6175966;23;45562;-87
2022/12/25 12:06:53;;;;;;;;;7.00;5.75;;;;;13.79;100.00;100297.56;6174849;23;47343;-87
2022/12/25 12:09:31;;;;;;;;;9.75;7.25;;;;;13.82;100.00;100290.44;6176628;22;45313;-87
2022/12/25 12:12:25;;;;;;;;;7.33;7.33;;;;;13.88;100.00;100301.09;6199242;23;44765;-86
2022/12/25 12:15:22;;;;;;;;;7.00;7.00;;;;;13.80;100.00;100304.69;6201593;23;44657;-87
2022/12/25 12:17:48;;;;;;;;;11.00;11.00;;;;;13.89;100.00;100297.50;6175319;23;45394;-86
2022/12/25 12:20:32;;;;;;;;;9.33;8.00;;;;;13.97;100.00;100301.00;6176789;23;45321;-87
2022/12/25 12:23:00;;;;;;;;;11.67;10.33;;;;;14.05;100.00;100293.81;6175915;23;44710;-87
2022/12/25 12:25:27;;;;;;;;;11.33;7.33;;;;;14.06;100.00;100271.53;6175463;23;45525;-87
2022/12/25 12:27:58;;;;;;;;;11.00;9.00;;;;;14.13;100.00;100270.56;6200883;23;46193;-87
2022/12/25 12:30:30;;;;;;;;;9.75;9.75;;;;;14.17;100.00;100272.31;6173780;23;45157;-87
2022/12/25 12:32:58;;;;;;;;;8.75;8.75;;;;;14.14;100.00;100256.31;6174188;23;44731;-87
2022/12/25 12:35:31;;;;;;;;;4.00;4.00;;;;;14.20;100.00;100272.31;6173615;23;45356;-86
2022/12/25 12:38:10;;;;;;;;;9.33;8.67;;;;;14.18;100.00;100294.63;6199343;23;47037;-86
2022/12/25 12:40:39;;;;;;;;;11.33;8.67;;;;;14.08;100.00;100296.47;6174318;23;44721;-86
2022/12/25 12:43:21;;;;;;;;;7.67;7.67;;;;;14.20;100.00;100308.88;6200864;23;45266;-86
2022/12/25 12:45:54;;;;;;;;;12.00;10.00;;;;;14.25;100.00;100295.47;6177510;23;45517;-87
2022/12/25 12:48:25;;;;;;;;;8.67;5.67;;;;;14.27;100.00;100269.59;6202348;22;45338;-87
2022/12/25 12:51:04;;;;;;;;;7.00;7.00;;;;;14.36;100.00;100259.69;6202909;22;44698;-87
2022/12/25 12:53:32;;;;;;;;;5.25;4.75;;;;;14.34;100.00;100260.59;6175150;23;44849;-87
2022/12/25 12:56:11;;;;;;;;;9.33;8.67;;;;;14.41;100.00;100267.66;6175707;23;45576;-87
2022/12/25 12:58:44;;;;;;;;;11.50;8.25;;;;;14.54;100.00;100296.09;6174711;23;46603;-87
2022/12/25 13:01:33;;;;;;;;;6.75;6.75;;;;;14.66;100.00;100297.78;6175277;23;45358;-87
2022/12/25 13:04:28;;;;;;;;;8.33;7.67;;;;;14.85;100.00;100277.06;6175258;23;45560;-86
2022/12/25 13:07:23;;;;;;;;;10.67;8.67;;;;;14.89;100.00;100268.09;6201123;23;44923;-86
2022/12/25 13:10:08;;;;;;;;;10.33;8.00;;;;;14.92;100.00;100265.38;6201671;22;45378;-86
2022/12/25 13:12:34;;;;;;;;;12.67;10.67;;;;;14.89;100.00;100257.41;6199955;23;45329;-86
2022/12/25 13:14:59;;;;;;;;;11.67;8.00;;;;;14.82;100.00;100249.44;6199462;23;44750;-86
2022/12/25 13:17:27;;;;;;;;;7.00;6.25;;;;;14.78;100.00;100264.66;6174303;23;45375;-86
2022/12/25 13:19:59;;;;;;;;;9.00;7.00;;;;;14.73;100.00;100245.09;6201279;23;45301;-86
2022/12/25 13:22:35;;;;;;;;;6.75;5.75;;;;;14.80;100.00;100262.84;6173657;23;44757;-86